Watertown, Minnesota
Current Conditions -  °F | °C
As of 4:55 PM on Tuesday 21 Oct 2014 (Local Time) from KCFE Reporting Station
Clear Clear  
Wind Chill: 57°   Ceiling: Unl
Heat Index: 57°   Visibility: 10mi
Dew Point: 39°   Wind: 8mph
Humidity: 50%   Direction: 130°SE
Pressure: 30.12"   Gusts: NA
Location:  44.96°N, 93.85°W
Report Text: KCFE 212155Z AUTO 13007KT 10SM CLR 14/04 A3012 RMK AO2 T01410039
Loading
Personal Weather Stations






























Interactive Weather Map
Tropical Storm Tracking
New forecast layout! Learn more

10-Day Weather Forecast

Advertisements
Track Severe Weather on mobile